KPQI/PQI METAR and TAF weather

Enter ICAO airport designator
Station Type Date Time Source
KPQI METAR 2021/01/22 05:56 UTC NOAA

KPQI 220556Z AUTO 00000KT 10SM CLR M20/M22 A2963 RMK AO2 SLP073 T12001222 11139 21206 58002


Station Type Date Time Source
KPQI Decoded METAR 2021/01/22 05:56 UTC NOAA

Presque Isle, ME, United States (KPQI) 46-41N 068-03W 146M
Jan 22, 2021 - 12:56 AM EST / 2021.01.22 0556 UTC
Wind: Calm:0
Visibility: 10 mile(s):0
Sky conditions: clear
Temperature: -4.0 F (-20.0 C)
Dew Point: -8.0 F (-22.2 C)
Relative Humidity: 82%
Pressure (altimeter): 29.63 in. Hg (1003 hPa)
Pressure tendency: 0.01 inches (0.2 hPa) lower than three hours ago
ob: KPQI 220556Z AUTO 00000KT 10SM CLR M20/M22 A2963 RMK AO2 SLP073 T12001222 11139 21206 58002
cycle: 6

Station Type Date Time Source
KPQI TAF 2021/01/22 06:34 UTC NOAA

TAF KPQI 220532Z 2206/2306 09004KT P6SM SCT050
FM220900 09006KT 5SM -SHSN OVC025
FM221800 09006KT P6SM VCSH OVC025
FM222200 07006KT P6SM VCSH OVC015

Example: see airport list